| time (UTC) | temp C | wind direction | speed KPH | gust KPH | rain 1hr cm | rain 24hr cm | rain mn cm | humidity % | barometer mb |
| 20260507075410 | 9 | 252 | 11.3 | 19.3 | 0.00 | 0.03 | 0.00 | 99 | 1009.5 |
| 20260507074410 | 9 | 229 | 6.4 | 19.3 | 0.00 | 0.03 | 0.00 | 99 | 1009.4 |
| 20260507073410 | 9 | 203 | 1.6 | 8.0 | 0.00 | 0.03 | 0.00 | 99 | 1009.3 |
| 20260507071410 | 8 | 240 | 8.0 | 17.7 | 0.00 | 0.03 | 0.00 | 99 | 1009.2 |
| 20260507070407 | 8 | 203 | 6.4 | 14.5 | 0.00 | 0.03 | 0.00 | 99 | 1009.2 |
| 20260507064407 | 8 | 191 | 4.8 | 17.7 | 0.00 | 0.03 | 0.00 | 99 | 1009.0 |
| 20260507063407 | 8 | 185 | 4.8 | 8.0 | 0.00 | 0.03 | 0.00 | 99 | 1009.0 |
| 20260507062408 | 8 | 182 | 6.4 | 11.3 | 0.00 | 0.03 | 0.00 | 99 | 1008.8 |
| 20260507061407 | 8 | 260 | 4.8 | 9.7 | 0.00 | 0.03 | 0.00 | 99 | 1008.8 |
| 20260507060407 | 8 | 199 | 3.2 | 14.5 | 0.00 | 0.03 | 0.00 | 99 | 1008.7 |
| 20260507055408 | 8 | 179 | 6.4 | 19.3 | 0.00 | 0.03 | 0.00 | 98 | 1008.5 |
| 20260507054408 | 8 | 176 | 8.0 | 19.3 | 0.00 | 0.03 | 0.00 | 98 | 1008.4 |
| 20260507052407 | 8 | 245 | 9.7 | 20.9 | 0.00 | 0.03 | 0.00 | 98 | 1008.1 |
| 20260507051407 | 8 | 188 | 9.7 | 22.5 | 0.00 | 0.03 | 0.00 | 98 | 1007.9 |
| 20260507050407 | 8 | 207 | 6.4 | 19.3 | 0.00 | 0.03 | 0.00 | 98 | 1007.9 |
| 20260507045412 | 8 | 175 | 11.3 | 17.7 | 0.00 | 0.03 | 0.00 | 98 | 1007.8 |
| 20260507044411 | 8 | 140 | 9.7 | 20.9 | 0.00 | 0.03 | 0.00 | 98 | 1007.8 |
| 20260507043411 | 8 | 186 | 8.0 | 17.7 | 0.00 | 0.03 | 0.00 | 98 | 1007.6 |
| 20260507042411 | 8 | 200 | 8.0 | 19.3 | 0.00 | 0.03 | 0.00 | 98 | 1007.4 |
| 20260507041411 | 10 | 245 | 19.3 | 32.2 | 0.00 | 0.00 | 0.00 | 94 | 1005.2 |
| 20260507040411 | 8 | 190 | 8.0 | 16.1 | 0.00 | 0.03 | 0.00 | 98 | 1007.2 |
| 20260507034411 | 8 | 168 | 8.0 | 16.1 | 0.00 | 0.03 | 0.00 | 97 | 1007.0 |
| 20260507033410 | 8 | 153 | 4.8 | 14.5 | 0.00 | 0.03 | 0.00 | 97 | 1007.0 |
| 20260507032411 | 9 | 168 | 6.4 | 17.7 | 0.00 | 0.03 | 0.00 | 97 | 1006.9 |
| 20260507031410 | 9 | 168 | 4.8 | 11.3 | 0.00 | 0.03 | 0.00 | 97 | 1006.8 |
| 20260507030411 | 9 | 207 | 8.0 | 16.1 | 0.00 | 0.03 | 0.00 | 97 | 1006.8 |
| 20260507025410 | 9 | 242 | 3.2 | 11.3 | 0.00 | 0.03 | 0.00 | 97 | 1006.8 |
| 20260507024410 | 9 | 241 | 11.3 | 16.1 | 0.00 | 0.03 | 0.00 | 97 | 1006.7 |
| 20260507023410 | 9 | 223 | 9.7 | 17.7 | 0.00 | 0.03 | 0.00 | 97 | 1006.8 |
| 20260507022410 | 10 | 238 | 16.1 | 20.9 | 0.00 | 0.03 | 0.00 | 97 | 1006.6 |
| 20260507021410 | 10 | 262 | 9.7 | 16.1 | 0.00 | 0.03 | 0.00 | 97 | 1006.5 |
| 20260507020410 | 10 | 245 | 4.8 | 9.7 | 0.00 | 0.03 | 0.00 | 97 | 1006.4 |
| 20260507015410 | 10 | 223 | 4.8 | 8.0 | 0.00 | 0.03 | 0.00 | 97 | 1006.2 |
| 20260507014410 | 10 | 209 | 6.4 | 9.7 | 0.00 | 0.03 | 0.00 | 97 | 1006.2 |
| 20260507013410 | 10 | 242 | 9.7 | 19.3 | 0.00 | 0.03 | 0.00 | 97 | 1006.2 |
| 20260507011410 | 10 | 228 | 3.2 | 6.4 | 0.00 | 0.03 | 0.00 | 97 | 1006.1 |
| 20260507010410 | 10 | 235 | 1.6 | 4.8 | 0.00 | 0.03 | 0.00 | 97 | 1006.0 |
| 20260507005410 | 10 | 236 | 1.6 | 6.4 | 0.00 | 0.03 | 0.00 | 96 | 1006.2 |
| 20260507004410 | 10 | 221 | 3.2 | 8.0 | 0.00 | 0.03 | 0.00 | 96 | 1006.1 |
| 20260507003410 | 10 | 245 | 6.4 | 9.7 | 0.00 | 0.03 | 0.00 | 96 | 1006.2 |
| 20260507001410 | 10 | 241 | 4.8 | 9.7 | 0.00 | 0.03 | 0.00 | 96 | 1006.1 |
| 20260507000410 | 10 | 277 | 3.2 | 6.4 | 0.00 | 0.03 | 0.00 | 96 | 1006.2 |
| 20260506235410 | 10 | 195 | 4.8 | 14.5 | 0.00 | 0.03 | 0.00 | 96 | 1006.2 |
| 20260506234409 | 10 | 181 | 3.2 | 6.4 | 0.00 | 0.03 | 0.00 | 96 | 1006.1 |
| 20260506233409 | 10 | 205 | 1.6 | 8.0 | 0.00 | 0.03 | 0.00 | 96 | 1006.2 |
| 20260506232409 | 10 | 185 | 3.2 | 8.0 | 0.00 | 0.03 | 0.00 | 96 | 1006.2 |
| 20260506230409 | 10 | 210 | 1.6 | 8.0 | 0.00 | 0.03 | 0.00 | 96 | 1006.1 |
| 20260506225409 | 10 | 217 | 3.2 | 9.7 | 0.00 | 0.03 | 0.00 | 96 | 1006.1 |
| 20260506224409 | 10 | 182 | 1.6 | 9.7 | 0.00 | 0.03 | 0.00 | 95 | 1006.1 |
| 20260506223409 | 10 | 182 | 3.2 | 11.3 | 0.00 | 0.03 | 0.00 | 95 | 1006.0 |
| 20260506222409 | 10 | 181 | 6.4 | 14.5 | 0.00 | 0.03 | 0.00 | 95 | 1005.8 |
| 20260506221409 | 10 | 239 | 4.8 | 14.5 | 0.00 | 0.03 | 0.00 | 94 | 1005.8 |
| 20260506220409 | 10 | 238 | 4.8 | 8.0 | 0.03 | 0.03 | 0.00 | 94 | 1005.7 |
| 20260506215409 | 11 | 216 | 4.8 | 11.3 | 0.03 | 0.03 | 0.03 | 93 | 1006.1 |
| 20260506214409 | 11 | 196 | 6.4 | 19.3 | 0.03 | 0.03 | 0.03 | 93 | 1006.1 |
| 20260506213409 | 11 | 203 | 4.8 | 14.5 | 0.03 | 0.03 | 0.03 | 93 | 1006.1 |
| 20260506212409 | 11 | 233 | 4.8 | 11.3 | 0.03 | 0.03 | 0.03 | 92 | 1005.9 |
| 20260506211409 | 11 | 192 | 4.8 | 14.5 | 0.03 | 0.03 | 0.03 | 92 | 1005.8 |
| 20260506210409 | 11 | 182 | 1.6 | 11.3 | 0.00 | 0.00 | 0.00 | 91 | 1005.7 |
| 20260506204409 | 11 | 226 | 3.2 | 6.4 | 0.00 | 0.00 | 0.00 | 90 | 1005.7 |
| 20260506203410 | 11 | 206 | 0.0 | 4.8 | 0.00 | 0.00 | 0.00 | 89 | 1005.7 |
| 20260506202409 | 11 | 211 | 3.2 | 9.7 | 0.00 | 0.00 | 0.00 | 89 | 1005.7 |
| 20260506201409 | 11 | 233 | 3.2 | 11.3 | 0.00 | 0.00 | 0.00 | 89 | 1005.7 |
| 20260506200408 | 11 | 231 | 1.6 | 8.0 | 0.00 | 0.00 | 0.00 | 88 | 1005.6 |
| 20260506195409 | 11 | 231 | 1.6 | 4.8 | 0.00 | 0.00 | 0.00 | 88 | 1005.6 |
| 20260506194409 | 11 | 179 | 1.6 | 4.8 | 0.00 | 0.00 | 0.00 | 87 | 1005.6 |
| 20260506193408 | 11 | 218 | 0.0 | 4.8 | 0.00 | 0.00 | 0.00 | 86 | 1005.4 |
| 20260506192409 | 11 | 226 | 0.0 | 3.2 | 0.00 | 0.00 | 0.00 | 86 | 1005.2 |
| 20260506191409 | 12 | 180 | 3.2 | 6.4 | 0.00 | 0.00 | 0.00 | 85 | 1004.8 |
| 20260506190408 | 12 | 217 | 3.2 | 8.0 | 0.00 | 0.00 | 0.00 | 84 | 1004.8 |
| 20260506185409 | 12 | 172 | 1.6 | 4.8 | 0.00 | 0.05 | 0.00 | 83 | 1004.8 |
| 20260506184408 | 12 | 216 | 1.6 | 4.8 | 0.00 | 0.05 | 0.00 | 82 | 1004.6 |
| 20260506183410 | 12 | 216 | 1.6 | 4.8 | 0.00 | 0.05 | 0.00 | 79 | 1004.6 |
| 20260506182408 | 12 | 240 | 0.0 | 0.0 | 0.00 | 0.05 | 0.00 | 77 | 1004.5 |
| 20260506181409 | 12 | 240 | 0.0 | 1.6 | 0.00 | 0.05 | 0.00 | 76 | 1004.4 |
| 20260506180408 | 12 | 240 | 0.0 | 0.0 | 0.00 | 0.05 | 0.00 | 75 | 1004.4 |
| 20260506175408 | 12 | 243 | 0.0 | 4.8 | 0.00 | 0.91 | 0.00 | 75 | 1004.4 |
| 20260506173408 | 13 | 195 | 1.6 | 4.8 | 0.00 | 0.91 | 0.00 | 74 | 1004.5 |
| 20260506171408 | 13 | 231 | 3.2 | 8.0 | 0.00 | 0.91 | 0.00 | 72 | 1004.3 |
| 20260506170409 | 13 | 191 | 3.2 | 6.4 | 0.00 | 0.91 | 0.00 | 71 | 1004.1 |
| 20260506165413 | 13 | 191 | 3.2 | 9.7 | 0.00 | 1.45 | 0.00 | 70 | 1004.1 |
| 20260506164413 | 13 | 257 | 8.0 | 14.5 | 0.00 | 1.45 | 0.00 | 69 | 1004.1 |
| 20260506163413 | 13 | 217 | 8.0 | 11.3 | 0.00 | 1.45 | 0.00 | 68 | 1004.2 |
| 20260506161413 | 14 | 194 | 3.2 | 11.3 | 0.00 | 1.45 | 0.00 | 66 | 1004.2 |
| 20260506160413 | 15 | 208 | 1.6 | 6.4 | 0.00 | 1.45 | 0.00 | 68 | 1004.0 |
| 20260506155413 | 15 | 250 | 6.4 | 9.7 | 0.00 | 1.45 | 0.00 | 61 | 1004.0 |
| 20260506153412 | 15 | 254 | 9.7 | 14.5 | 0.00 | 1.45 | 0.00 | 59 | 1004.1 |
| 20260506152412 | 15 | 238 | 6.4 | 8.0 | 0.00 | 1.45 | 0.00 | 65 | 1004.1 |
| 20260506151412 | 15 | 186 | 1.6 | 6.4 | 0.00 | 1.45 | 0.00 | 64 | 1004.2 |
| 20260506150412 | 15 | 188 | 1.6 | 9.7 | 0.00 | 1.45 | 0.00 | 64 | 1004.4 |
| 20260506145412 | 15 | 215 | 3.2 | 8.0 | 0.00 | 1.45 | 0.00 | 65 | 1004.4 |
| 20260506143413 | 15 | 224 | 3.2 | 9.7 | 0.00 | 1.45 | 0.00 | 63 | 1004.4 |
| 20260506142412 | 16 | 243 | 4.8 | 9.7 | 0.00 | 1.45 | 0.00 | 57 | 1004.4 |
| 20260506140412 | 16 | 203 | 4.8 | 9.7 | 0.00 | 1.45 | 0.00 | 60 | 1004.4 |
| 20260506135412 | 16 | 179 | 3.2 | 16.1 | 0.00 | 1.45 | 0.00 | 65 | 1004.3 |
| 20260506134412 | 15 | 225 | 11.3 | 19.3 | 0.00 | 1.45 | 0.00 | 64 | 1004.4 |
| 20260506133412 | 15 | 158 | 6.4 | 14.5 | 0.00 | 1.45 | 0.00 | 60 | 1004.7 |
| 20260506132412 | 16 | 160 | 8.0 | 17.7 | 0.00 | 1.45 | 0.00 | 66 | 1004.7 |
| 20260506131412 | 15 | 167 | 6.4 | 14.5 | 0.00 | 1.45 | 0.00 | 63 | 1005.0 |
| 20260506130411 | 16 | 174 | 8.0 | 17.7 | 0.00 | 1.45 | 0.00 | 68 | 1004.8 |
| 20260506125411 | 15 | 179 | 1.6 | 17.7 | 0.00 | 1.45 | 0.00 | 67 | 1005.0 |
| 20260506124411 | 15 | 236 | 8.0 | 17.7 | 0.00 | 1.45 | 0.00 | 63 | 1005.1 |
| 20260506123411 | 16 | 203 | 6.4 | 12.9 | 0.00 | 1.45 | 0.00 | 63 | 1004.9 |
| 20260506122411 | 15 | 264 | 3.2 | 14.5 | 0.00 | 1.45 | 0.00 | 67 | 1005.0 |
| 20260506121411 | 15 | 243 | 6.4 | 19.3 | 0.00 | 1.45 | 0.00 | 68 | 1005.0 |
| 20260506115411 | 16 | 174 | 12.9 | 20.9 | 0.00 | 1.45 | 0.00 | 68 | 1004.9 |
| 20260506114411 | 15 | 187 | 17.7 | 22.5 | 0.00 | 1.45 | 0.00 | 69 | 1005.2 |
| 20260506113411 | 15 | 184 | 8.0 | 19.3 | 0.00 | 1.45 | 0.00 | 65 | 1005.1 |
| 20260506110411 | 14 | 165 | 11.3 | 20.9 | 0.00 | 1.45 | 0.00 | 69 | 1005.4 |
| 20260506105411 | 15 | 164 | 12.9 | 19.3 | 0.00 | 1.45 | 0.00 | 74 | 1005.3 |
| 20260506104411 | 14 | 184 | 9.7 | 20.9 | 0.00 | 1.45 | 0.00 | 74 | 1005.4 |
| 20260506103411 | 13 | 226 | 6.4 | 16.1 | 0.00 | 1.45 | 0.00 | 75 | 1005.5 |
| 20260506101410 | 13 | 214 | 8.0 | 19.3 | 0.00 | 1.45 | 0.00 | 76 | 1005.4 |
| 20260506095411 | 12 | 190 | 6.4 | 9.7 | 0.00 | 1.45 | 0.00 | 79 | 1005.6 |
| 20260506094410 | 12 | 184 | 6.4 | 17.7 | 0.00 | 1.45 | 0.00 | 82 | 1005.7 |
| 20260506093410 | 12 | 195 | 9.7 | 19.3 | 0.00 | 1.45 | 0.00 | 82 | 1005.8 |
| 20260506092411 | 12 | 193 | 6.4 | 25.7 | 0.00 | 1.45 | 0.00 | 81 | 1005.7 |
| 20260506091410 | 13 | 144 | 6.4 | 12.9 | 0.00 | 1.45 | 0.00 | 80 | 1005.6 |
| 20260506085410 | 13 | 156 | 11.3 | 20.9 | 0.00 | 1.45 | 0.00 | 82 | 1005.5 |
| 20260506084410 | 13 | 167 | 8.0 | 19.3 | 0.00 | 1.45 | 0.00 | 85 | 1005.4 |
| 20260506083410 | 12 | 226 | 9.7 | 22.5 | 0.00 | 1.45 | 0.00 | 90 | 1005.4 |
| 20260506082410 | 11 | 210 | 8.0 | 16.1 | 0.00 | 1.45 | 0.00 | 89 | 1005.6 |
| 20260506081410 | 11 | 224 | 11.3 | 19.3 | 0.00 | 1.45 | 0.00 | 88 | 1005.6 |
| 20260506080410 | 12 | 212 | 6.4 | 14.5 | 0.00 | 1.45 | 0.00 | 89 | 1005.2 |